createdAt,value
2018-08-10T00:01:51.774Z,23.20
2018-08-10T00:04:20.032Z,23.30
2018-08-10T00:06:49.042Z,23.10
2018-08-10T00:09:17.292Z,23.10
2018-08-10T00:11:46.251Z,23.00
2018-08-10T00:14:14.526Z,23.00
2018-08-10T00:16:42.732Z,22.90
2018-08-10T00:19:11.719Z,22.80
2018-08-10T00:21:40.748Z,22.90
2018-08-10T00:24:08.953Z,22.90
2018-08-10T00:26:37.192Z,22.90
2018-08-10T00:29:05.437Z,23.00
2018-08-10T00:31:33.688Z,23.00
2018-08-10T00:34:01.905Z,22.70
2018-08-10T00:36:30.914Z,22.80
2018-08-10T00:38:59.184Z,22.70
2018-08-10T00:41:27.440Z,22.70
2018-08-10T00:43:55.682Z,22.60
2018-08-10T00:46:23.898Z,22.60
2018-08-10T00:48:52.860Z,22.60
2018-08-10T00:51:21.095Z,22.60
2018-08-10T00:53:49.343Z,22.70
2018-08-10T00:56:18.371Z,22.60
2018-08-10T00:58:46.568Z,22.60
2018-08-10T01:01:14.784Z,22.50
2018-08-10T01:03:43.014Z,22.60
2018-08-10T01:06:11.230Z,22.60
2018-08-10T01:08:39.431Z,22.50
2018-08-10T01:11:07.635Z,22.60
2018-08-10T01:13:36.017Z,22.40
2018-08-10T01:16:04.875Z,22.30
2018-08-10T01:18:33.136Z,22.30
2018-08-10T01:21:02.100Z,22.40
2018-08-10T01:23:30.292Z,22.30
2018-08-10T01:25:58.517Z,22.40
2018-08-10T01:28:26.791Z,22.40
2018-08-10T01:30:54.953Z,22.50
2018-08-10T01:33:24.173Z,22.30
2018-08-10T01:35:52.383Z,22.50
2018-08-10T01:38:20.655Z,22.50
2018-08-10T01:40:48.863Z,22.50
2018-08-10T01:43:17.085Z,22.50
2018-08-10T01:45:45.302Z,22.50
2018-08-10T01:48:13.570Z,22.40
2018-08-10T01:50:41.777Z,22.30
2018-08-10T01:53:10.001Z,22.30
2018-08-10T01:55:38.266Z,22.30
2018-08-10T01:58:06.513Z,22.40
2018-08-10T02:00:35.597Z,22.50
2018-08-10T02:03:04.607Z,22.50
2018-08-10T02:05:33.601Z,22.50
2018-08-10T02:08:01.863Z,22.50
2018-08-10T02:10:30.124Z,22.50
2018-08-10T02:12:58.347Z,22.50
2018-08-10T02:15:26.552Z,22.50
2018-08-10T02:17:54.811Z,22.50
2018-08-10T02:20:23.045Z,22.50
2018-08-10T02:22:52.041Z,22.40
2018-08-10T02:25:21.105Z,22.40
2018-08-10T02:27:49.644Z,22.40
2018-08-10T02:30:18.652Z,22.40
2018-08-10T02:32:46.846Z,22.40
2018-08-10T02:35:15.105Z,22.40
2018-08-10T02:37:43.304Z,22.40
2018-08-10T02:40:11.579Z,22.40
2018-08-10T02:42:39.838Z,22.30
2018-08-10T02:45:08.074Z,22.30
2018-08-10T02:47:37.103Z,22.40
2018-08-10T02:50:05.735Z,22.40
2018-08-10T02:52:34.000Z,22.40
2018-08-10T02:55:02.246Z,22.40
2018-08-10T02:57:30.463Z,22.40
2018-08-10T02:59:58.671Z,22.40
2018-08-10T03:02:26.942Z,22.40
2018-08-10T03:04:55.959Z,22.30
2018-08-10T03:07:24.612Z,22.30
2018-08-10T03:09:53.585Z,22.30
2018-08-10T03:12:21.792Z,22.30
2018-08-10T03:14:50.848Z,22.20
2018-08-10T03:17:19.095Z,22.20
2018-08-10T03:19:47.373Z,22.20
2018-08-10T03:22:15.768Z,22.20
2018-08-10T03:24:43.891Z,22.10
2018-08-10T03:27:12.856Z,22.10
2018-08-10T03:29:41.086Z,22.10
2018-08-10T03:32:09.287Z,22.10
2018-08-10T03:34:37.521Z,22.00
2018-08-10T03:37:05.795Z,22.00
2018-08-10T03:39:34.755Z,21.90
2018-08-10T03:42:03.027Z,21.90
2018-08-10T03:44:31.272Z,21.90
2018-08-10T03:46:59.535Z,21.80
2018-08-10T03:49:27.784Z,21.80
2018-08-10T03:51:56.760Z,21.60
2018-08-10T03:54:25.891Z,21.60
2018-08-10T03:56:54.944Z,21.60
2018-08-10T03:59:23.154Z,21.60
2018-08-10T04:01:51.386Z,21.60
2018-08-10T04:04:19.647Z,21.50
2018-08-10T04:06:47.893Z,21.50
2018-08-10T04:09:16.911Z,21.40
2018-08-10T04:11:45.158Z,21.40
2018-08-10T04:14:14.153Z,21.30
2018-08-10T04:16:42.351Z,21.30
2018-08-10T04:19:10.633Z,21.30
2018-08-10T04:21:38.874Z,21.30
2018-08-10T04:24:07.838Z,21.10
2018-08-10T04:26:36.058Z,21.10
2018-08-10T04:29:04.331Z,21.10
2018-08-10T04:31:32.538Z,21.00
2018-08-10T04:34:00.778Z,21.00
2018-08-10T04:36:28.988Z,21.00
2018-08-10T04:38:57.222Z,20.90
2018-08-10T04:41:26.194Z,20.60
2018-08-10T04:43:54.442Z,20.60
2018-08-10T04:46:22.704Z,20.60
2018-08-10T04:48:50.898Z,20.60
2018-08-10T04:51:19.162Z,20.60
2018-08-10T04:53:47.414Z,20.30
2018-08-10T04:56:15.656Z,20.30
2018-08-10T04:58:43.902Z,20.30
2018-08-10T05:01:12.107Z,20.40
2018-08-10T05:03:40.380Z,20.40
2018-08-10T05:06:08.526Z,20.30
2018-08-10T05:08:36.803Z,20.30
2018-08-10T05:11:05.831Z,20.00
2018-08-10T05:13:34.043Z,20.10
2018-08-10T05:16:02.311Z,20.10
2018-08-10T05:18:31.332Z,19.90
2018-08-10T05:21:00.256Z,19.80
2018-08-10T05:23:28.489Z,19.80
2018-08-10T05:25:56.844Z,19.90
2018-08-10T05:28:25.751Z,19.80
2018-08-10T05:30:54.036Z,19.80
2018-08-10T05:33:22.296Z,19.90
2018-08-10T05:35:51.278Z,19.90
2018-08-10T05:38:20.296Z,20.00
2018-08-10T05:40:48.567Z,19.90
2018-08-10T05:43:17.563Z,19.90
2018-08-10T05:45:46.561Z,19.80
2018-08-10T05:48:14.776Z,19.80
2018-08-10T05:50:43.035Z,19.80
2018-08-10T05:53:11.256Z,19.70
2018-08-10T05:55:39.508Z,19.70
2018-08-10T05:58:07.736Z,19.60
2018-08-10T06:00:35.956Z,19.70
2018-08-10T06:03:04.169Z,19.70
2018-08-10T06:05:33.135Z,19.80
2018-08-10T06:08:01.379Z,19.80
2018-08-10T06:10:29.601Z,19.80
2018-08-10T06:12:57.857Z,19.80
2018-08-10T06:15:26.112Z,19.80
2018-08-10T06:17:55.091Z,19.80
2018-08-10T06:20:23.336Z,19.80
2018-08-10T06:22:52.400Z,19.90
2018-08-10T06:25:20.621Z,19.90
2018-08-10T06:27:49.704Z,19.90
2018-08-10T06:30:18.623Z,20.00
2018-08-10T06:32:46.875Z,20.00
2018-08-10T06:35:15.119Z,19.90
2018-08-10T06:37:43.392Z,19.90
2018-08-10T06:40:11.592Z,19.90
2018-08-10T06:42:39.863Z,20.00
2018-08-10T06:45:08.116Z,20.00
2018-08-10T06:47:36.335Z,20.00
2018-08-10T06:50:05.362Z,19.90
2018-08-10T06:52:33.605Z,19.90
2018-08-10T06:55:01.857Z,20.00
2018-08-10T06:57:30.100Z,19.90
2018-08-10T06:59:58.362Z,19.90
2018-08-10T07:02:26.595Z,19.90
2018-08-10T07:04:54.812Z,19.90
2018-08-10T07:07:23.099Z,19.80
2018-08-10T07:09:52.504Z,19.90
2018-08-10T07:12:20.712Z,19.80
2018-08-10T07:14:48.939Z,19.90
2018-08-10T07:17:17.914Z,19.70
2018-08-10T07:19:46.889Z,19.70
2018-08-10T07:22:15.133Z,19.70
2018-08-10T07:24:43.357Z,19.30
2018-08-10T07:27:11.707Z,19.40
2018-08-10T07:29:40.668Z,19.40
2018-08-10T07:32:08.878Z,19.30
2018-08-10T07:34:37.136Z,19.40
2018-08-10T07:37:05.355Z,19.40
2018-08-10T07:39:34.336Z,19.40
2018-08-10T07:42:02.591Z,19.40
2018-08-10T07:44:30.870Z,19.20
2018-08-10T07:46:59.088Z,19.00
2018-08-10T07:49:28.068Z,19.20
2018-08-10T07:51:56.301Z,19.10
2018-08-10T07:54:24.904Z,19.30
2018-08-10T07:56:53.168Z,19.30
2018-08-10T07:59:21.427Z,19.40
2018-08-10T08:01:49.640Z,19.40
2018-08-10T08:04:18.570Z,19.60
2018-08-10T08:06:47.616Z,19.80
2018-08-10T08:09:15.805Z,19.80
2018-08-10T08:11:44.014Z,19.90
2018-08-10T08:14:13.040Z,19.90
2018-08-10T08:16:41.292Z,19.90
2018-08-10T08:19:10.276Z,19.90
2018-08-10T08:21:40.023Z,19.90
2018-08-10T08:24:08.326Z,19.90
2018-08-10T08:26:36.562Z,19.90
2018-08-10T08:29:04.813Z,19.90
2018-08-10T08:31:33.011Z,20.10
2018-08-10T08:34:01.270Z,20.20
2018-08-10T08:36:29.477Z,20.00
2018-08-10T08:38:57.742Z,20.10
2018-08-10T08:41:25.968Z,20.10
2018-08-10T08:43:54.215Z,20.20
2018-08-10T08:46:22.598Z,20.30
2018-08-10T08:48:51.447Z,20.50
2018-08-10T08:51:20.470Z,20.10
2018-08-10T08:53:48.773Z,20.10
2018-08-10T08:56:16.944Z,20.30
2018-08-10T08:58:45.994Z,20.70
2018-08-10T09:01:15.693Z,20.80
2018-08-10T09:06:54.831Z,20.80
2018-08-10T09:09:35.197Z,20.80
2018-08-10T09:12:04.086Z,20.90
2018-08-10T09:14:36.764Z,20.90
2018-08-10T09:17:04.982Z,20.80
2018-08-10T09:19:33.239Z,20.90
2018-08-10T09:22:01.501Z,21.00
2018-08-10T09:24:29.762Z,20.90
2018-08-10T09:26:58.057Z,21.00
2018-08-10T09:29:27.123Z,20.90
2018-08-10T09:31:55.667Z,21.10
2018-08-10T09:34:24.718Z,20.90
2018-08-10T09:36:53.681Z,20.60
2018-08-10T09:39:21.947Z,20.60
2018-08-10T09:41:50.149Z,20.20
2018-08-10T09:44:19.114Z,20.30
2018-08-10T09:46:47.396Z,20.70
2018-08-10T09:49:15.647Z,20.90
2018-08-10T09:51:44.721Z,21.30
2018-08-10T09:54:12.869Z,21.30
2018-08-10T09:56:41.132Z,21.30
2018-08-10T09:59:09.325Z,21.30
2018-08-10T10:01:37.607Z,21.60
2018-08-10T10:04:05.851Z,21.80
2018-08-10T10:06:34.048Z,21.90
2018-08-10T10:09:02.325Z,21.90
2018-08-10T10:11:31.248Z,22.30
2018-08-10T10:14:00.286Z,22.40
2018-08-10T10:16:28.490Z,22.40
2018-08-10T10:18:57.012Z,22.60
2018-08-10T10:21:25.214Z,22.70
2018-08-10T10:23:53.466Z,22.80
2018-08-10T10:26:23.444Z,22.60
2018-08-10T10:28:51.696Z,22.60
2018-08-10T10:31:19.940Z,22.70
2018-08-10T10:33:48.167Z,22.70
2018-08-10T10:36:16.452Z,22.60
2018-08-10T10:38:44.661Z,22.60
2018-08-10T10:41:13.638Z,22.40
2018-08-10T10:43:41.866Z,22.30
2018-08-10T10:46:10.100Z,22.70
2018-08-10T10:48:38.356Z,23.00
2018-08-10T10:51:06.552Z,23.20
2018-08-10T10:53:35.556Z,23.50
2018-08-10T10:56:04.577Z,23.40
2018-08-10T10:58:32.824Z,23.40
2018-08-10T11:01:01.068Z,23.00
2018-08-10T11:03:29.272Z,23.20
2018-08-10T11:05:58.306Z,23.50
2018-08-10T11:08:26.545Z,23.40
2018-08-10T11:10:54.771Z,23.50
2018-08-10T11:13:23.016Z,23.70
2018-08-10T11:15:51.989Z,23.10
2018-08-10T11:18:20.989Z,23.10
2018-08-10T11:20:49.252Z,23.10
2018-08-10T11:23:17.462Z,23.10
2018-08-10T11:25:45.850Z,23.50
2018-08-10T11:28:14.764Z,24.30
2018-08-10T11:30:43.030Z,24.30
2018-08-10T11:33:11.299Z,24.60
2018-08-10T11:35:40.251Z,25.20
2018-08-10T11:38:08.511Z,25.20
2018-08-10T11:40:36.783Z,25.50
2018-08-10T11:43:04.978Z,25.50
2018-08-10T11:45:33.250Z,25.80
2018-08-10T11:48:01.490Z,26.10
2018-08-10T11:50:29.759Z,26.40
2018-08-10T11:52:58.021Z,26.70
2018-08-10T11:55:26.282Z,26.80
2018-08-10T11:57:55.258Z,27.20
2018-08-10T12:00:24.270Z,27.10
2018-08-10T12:02:53.637Z,27.40
2018-08-10T12:05:21.875Z,27.30
2018-08-10T12:07:50.099Z,27.50
2018-08-10T12:10:18.315Z,27.60
2018-08-10T12:12:46.580Z,27.50
2018-08-10T12:15:14.808Z,27.60
2018-08-10T12:17:43.812Z,28.20
2018-08-10T12:20:12.068Z,28.20
2018-08-10T12:22:40.326Z,28.50
2018-08-10T12:25:09.180Z,28.80
2018-08-10T12:27:39.145Z,29.40
2018-08-10T12:30:07.411Z,29.30
2018-08-10T12:32:35.673Z,29.60
2018-08-10T12:35:03.910Z,29.80
2018-08-10T12:37:32.184Z,30.10
2018-08-10T12:40:00.388Z,29.20
2018-08-10T12:42:29.444Z,29.20
2018-08-10T12:44:57.664Z,29.20
2018-08-10T12:47:26.649Z,29.90
2018-08-10T12:49:55.691Z,30.00
2018-08-10T12:52:23.901Z,30.00
2018-08-10T12:54:52.143Z,30.20
2018-08-10T12:57:20.365Z,30.10
2018-08-10T12:59:48.613Z,29.40
2018-08-10T13:02:16.855Z,28.90
2018-08-10T13:04:45.823Z,30.10
2018-08-10T13:07:14.819Z,30.40
2018-08-10T13:09:43.812Z,30.90
2018-08-10T13:12:12.846Z,31.20
2018-08-10T13:14:41.098Z,31.20
2018-08-10T13:17:09.308Z,31.40
2018-08-10T13:19:37.577Z,31.20
2018-08-10T13:22:05.821Z,31.30
2018-08-10T13:24:34.731Z,31.60
2018-08-10T13:27:02.944Z,31.90
2018-08-10T13:29:31.229Z,32.10
2018-08-10T13:31:59.465Z,32.00
2018-08-10T13:34:27.696Z,31.90
2018-08-10T13:36:55.947Z,32.20
2018-08-10T13:39:24.176Z,32.30
2018-08-10T13:41:53.189Z,32.30
2018-08-10T13:44:21.433Z,31.80
2018-08-10T13:46:50.407Z,31.60
2018-08-10T13:49:18.680Z,31.60
2018-08-10T13:51:46.952Z,31.50
2018-08-10T13:54:15.205Z,31.50
2018-08-10T13:56:43.440Z,31.60
2018-08-10T13:59:12.427Z,31.70
2018-08-10T14:01:41.412Z,31.00
2018-08-10T14:04:10.417Z,30.90
2018-08-10T14:06:39.491Z,30.90
2018-08-10T14:09:07.701Z,30.90
2018-08-10T14:11:35.923Z,31.10
2018-08-10T14:14:04.223Z,31.10
2018-08-10T14:16:32.472Z,31.20
2018-08-10T14:19:00.768Z,30.90
2018-08-10T14:21:28.969Z,30.90
2018-08-10T14:23:57.978Z,30.70
2018-08-10T14:26:26.255Z,30.70
2018-08-10T14:28:55.243Z,30.70
2018-08-10T14:31:23.524Z,30.70
2018-08-10T14:33:52.483Z,30.50
2018-08-10T14:36:20.738Z,30.50
2018-08-10T14:38:48.968Z,30.90
2018-08-10T14:41:17.248Z,30.70
2018-08-10T14:43:45.422Z,30.10
2018-08-10T14:46:13.723Z,29.40
2018-08-10T14:48:41.967Z,29.60
2018-08-10T14:51:10.221Z,30.00
2018-08-10T14:53:38.547Z,30.40
2018-08-10T14:56:06.741Z,30.50
2018-08-10T14:58:34.946Z,30.50
2018-08-10T15:01:03.190Z,30.50
2018-08-10T15:03:31.463Z,30.40
2018-08-10T15:05:59.690Z,30.10
2018-08-10T15:08:27.888Z,29.80
2018-08-10T15:10:56.161Z,29.50
2018-08-10T15:13:25.197Z,29.10
2018-08-10T15:15:53.419Z,29.10
2018-08-10T15:18:22.543Z,29.10
2018-08-10T15:20:50.688Z,29.10
2018-08-10T15:23:19.731Z,28.90
2018-08-10T15:25:47.942Z,28.90
2018-08-10T15:28:16.207Z,28.70
2018-08-10T15:30:44.476Z,28.30
2018-08-10T15:33:12.692Z,28.20
2018-08-10T15:35:41.687Z,28.30
2018-08-10T15:38:10.665Z,28.40
2018-08-10T15:40:38.944Z,28.40
2018-08-10T15:43:07.195Z,28.60
2018-08-10T15:45:35.475Z,28.80
2018-08-10T15:48:03.687Z,29.00
2018-08-10T15:50:32.711Z,29.20
2018-08-10T15:53:00.966Z,29.20
2018-08-10T15:55:29.996Z,29.50
2018-08-10T15:57:58.249Z,29.50
2018-08-10T16:00:26.494Z,29.60
2018-08-10T16:02:54.741Z,29.70
2018-08-10T16:05:23.927Z,29.70
2018-08-10T16:07:52.132Z,29.90
2018-08-10T16:10:20.765Z,29.80
2018-08-10T16:12:49.731Z,29.80
2018-08-10T16:15:18.009Z,29.80
2018-08-10T16:17:46.255Z,29.70
2018-08-10T16:20:14.523Z,29.60
2018-08-10T16:22:42.722Z,29.50
2018-08-10T16:25:11.007Z,29.30
2018-08-10T16:27:39.205Z,29.10
2018-08-10T16:30:08.189Z,28.80
2018-08-10T16:32:37.231Z,28.80
2018-08-10T16:35:05.445Z,28.70
2018-08-10T16:37:33.700Z,28.80
2018-08-10T16:40:01.917Z,28.80
2018-08-10T16:42:30.964Z,28.90
2018-08-10T16:44:59.231Z,28.90
2018-08-10T16:47:27.480Z,29.00
2018-08-10T16:49:55.743Z,29.00
2018-08-10T16:52:24.750Z,28.70
2018-08-10T16:54:53.022Z,28.60
2018-08-10T16:57:22.003Z,28.60
2018-08-10T16:59:51.028Z,28.60
2018-08-10T17:02:19.268Z,28.50
2018-08-10T17:04:47.537Z,28.50
2018-08-10T17:07:15.805Z,28.40
2018-08-10T17:09:44.064Z,28.30
2018-08-10T17:12:13.063Z,28.00
2018-08-10T17:14:41.349Z,28.00
2018-08-10T17:17:09.615Z,27.90
2018-08-10T17:19:37.849Z,27.90
2018-08-10T17:22:06.875Z,27.70
2018-08-10T17:24:35.107Z,27.70
2018-08-10T17:27:04.097Z,27.50
2018-08-10T17:29:33.135Z,27.40
2018-08-10T17:32:01.384Z,27.40
2018-08-10T17:34:29.650Z,27.30
2018-08-10T17:36:58.710Z,27.00
2018-08-10T17:39:26.904Z,27.00
2018-08-10T17:41:55.960Z,26.90
2018-08-10T17:44:24.190Z,26.80
2018-08-10T17:46:53.243Z,26.60
2018-08-10T17:49:21.474Z,26.60
2018-08-10T17:51:50.452Z,26.40
2018-08-10T17:54:19.440Z,26.30
2018-08-10T17:56:48.432Z,26.20
2018-08-10T17:59:16.731Z,26.20
2018-08-10T18:01:45.684Z,26.10
2018-08-10T18:04:13.961Z,26.10
2018-08-10T18:06:42.188Z,26.10
2018-08-10T18:09:10.446Z,26.00
2018-08-10T18:11:39.483Z,25.90
2018-08-10T18:14:07.720Z,25.90
2018-08-10T18:16:36.777Z,25.80
2018-08-10T18:19:05.017Z,25.80
2018-08-10T18:21:33.267Z,25.70
2018-08-10T18:24:02.259Z,25.60
2018-08-10T18:26:31.247Z,25.50
2018-08-10T18:29:00.255Z,25.40
2018-08-10T18:31:29.217Z,25.40
2018-08-10T18:33:57.441Z,25.30
2018-08-10T18:36:25.697Z,25.20
2018-08-10T18:38:54.689Z,24.80
2018-08-10T18:41:23.681Z,24.70
2018-08-10T18:43:52.729Z,24.60
2018-08-10T18:46:20.958Z,24.60
2018-08-10T18:48:49.951Z,24.50
2018-08-10T18:51:18.986Z,24.40
2018-08-10T18:53:47.196Z,24.40
2018-08-10T18:56:15.439Z,24.30
2018-08-10T18:58:43.646Z,24.00
2018-08-10T19:01:11.896Z,24.00
2018-08-10T19:03:40.111Z,24.00
2018-08-10T19:06:09.134Z,23.70
2018-08-10T19:08:38.236Z,23.70
2018-08-10T19:11:07.195Z,23.50
2018-08-10T19:13:35.433Z,23.50
2018-08-10T19:16:03.642Z,23.50
2018-08-10T19:18:31.886Z,23.40
2018-08-10T19:21:00.143Z,23.30
2018-08-10T19:23:28.799Z,22.90
2018-08-10T19:25:57.805Z,22.70
2018-08-10T19:28:26.786Z,22.60
2018-08-10T19:30:55.838Z,22.60
2018-08-10T19:33:24.034Z,22.60
2018-08-10T19:35:52.277Z,22.50
2018-08-10T19:38:20.822Z,22.30
2018-08-10T19:40:49.004Z,22.10
2018-08-10T19:43:17.246Z,22.10
2018-08-10T19:45:45.492Z,22.10
2018-08-10T19:48:13.754Z,22.00
2018-08-10T19:50:41.970Z,22.00
2018-08-10T19:53:10.238Z,21.90
2018-08-10T19:55:38.462Z,21.80
2018-08-10T19:58:07.489Z,21.50
2018-08-10T20:00:35.746Z,21.50
2018-08-10T20:03:04.147Z,21.20
2018-08-10T20:05:32.410Z,21.00
2018-08-10T20:08:00.616Z,20.90
2018-08-10T20:10:28.840Z,20.90
2018-08-10T20:12:57.900Z,20.70
2018-08-10T20:15:26.178Z,20.70
2018-08-10T20:17:55.150Z,20.80
2018-08-10T20:20:23.364Z,20.80
2018-08-10T20:22:52.435Z,20.70
2018-08-10T20:25:21.468Z,20.70
2018-08-10T20:27:49.690Z,20.70
2018-08-10T20:30:17.921Z,20.80
2018-08-10T20:32:46.938Z,20.90
2018-08-10T20:35:15.170Z,20.90
2018-08-10T20:37:43.396Z,20.70
2018-08-10T20:40:11.637Z,20.80
2018-08-10T20:42:40.648Z,20.90
2018-08-10T20:45:09.850Z,20.80
2018-08-10T20:47:38.829Z,20.80
2018-08-10T20:50:07.858Z,20.70
2018-08-10T20:52:36.132Z,20.70
2018-08-10T20:55:04.348Z,20.70
2018-08-10T20:57:32.626Z,20.70
2018-08-10T21:00:00.894Z,20.70
2018-08-10T21:02:29.144Z,20.70
2018-08-10T21:04:57.378Z,20.60
2018-08-10T21:07:26.402Z,20.50
2018-08-10T21:09:54.636Z,20.50
2018-08-10T21:12:22.905Z,20.60
2018-08-10T21:14:51.112Z,20.60
2018-08-10T21:17:19.377Z,20.40
2018-08-10T21:19:47.605Z,20.50
2018-08-10T21:22:15.863Z,20.60
2018-08-10T21:24:44.113Z,20.40
2018-08-10T21:27:13.156Z,20.30
2018-08-10T21:29:41.415Z,20.20
2018-08-10T21:32:09.639Z,20.40
2018-08-10T21:34:37.888Z,20.40
2018-08-10T21:37:06.916Z,20.40
2018-08-10T21:39:35.137Z,20.40
2018-08-10T21:42:04.119Z,20.30
2018-08-10T21:44:32.386Z,20.30
2018-08-10T21:47:01.392Z,20.20
2018-08-10T21:49:29.620Z,20.20
2018-08-10T21:51:57.833Z,20.20
2018-08-10T21:54:26.053Z,20.10
2018-08-10T21:56:54.320Z,20.10
2018-08-10T21:59:22.583Z,20.00
2018-08-10T22:01:50.849Z,20.00
2018-08-10T22:04:19.068Z,20.00
2018-08-10T22:06:47.331Z,20.00
2018-08-10T22:09:15.555Z,20.00
2018-08-10T22:11:44.571Z,19.90
2018-08-10T22:14:12.785Z,19.90
2018-08-10T22:16:57.777Z,19.80
2018-08-10T22:19:26.049Z,19.90
2018-08-10T22:21:54.289Z,19.80
2018-08-10T22:24:22.538Z,19.80
2018-08-10T22:26:51.513Z,19.70
2018-08-10T22:29:20.539Z,19.80
2018-08-10T22:31:48.767Z,19.80
2018-08-10T22:34:16.976Z,19.80
2018-08-10T22:36:45.234Z,19.70
2018-08-10T22:39:13.436Z,19.80
2018-08-10T22:41:41.708Z,19.80
2018-08-10T22:44:10.671Z,19.60
2018-08-10T22:46:38.944Z,19.70
2018-08-10T22:49:07.144Z,19.70
2018-08-10T22:51:36.140Z,19.70
2018-08-10T22:54:05.160Z,19.70
2018-08-10T22:56:33.411Z,19.70
2018-08-10T22:59:02.442Z,19.70
2018-08-10T23:01:30.643Z,19.70
2018-08-10T23:03:58.916Z,19.70
2018-08-10T23:06:27.160Z,19.60
2018-08-10T23:08:55.427Z,19.60
2018-08-10T23:11:23.655Z,19.60
2018-08-10T23:13:51.920Z,19.50
2018-08-10T23:16:20.167Z,19.40
2018-08-10T23:18:48.378Z,19.40
2018-08-10T23:21:16.636Z,19.40
2018-08-10T23:23:44.882Z,19.40
2018-08-10T23:26:13.941Z,19.30
2018-08-10T23:28:42.172Z,19.20
2018-08-10T23:31:10.433Z,19.20
2018-08-10T23:33:39.428Z,19.20
2018-08-10T23:36:07.707Z,19.10
2018-08-10T23:38:36.725Z,19.10
2018-08-10T23:41:04.987Z,19.10
2018-08-10T23:43:33.201Z,18.90
2018-08-10T23:46:01.461Z,18.90
2018-08-10T23:48:29.683Z,18.80
2018-08-10T23:50:58.691Z,18.70
2018-08-10T23:53:27.787Z,18.70
2018-08-10T23:55:56.747Z,18.70
2018-08-10T23:58:25.101Z,18.60
